Time;durP1;ratioP1;P1;durP2;ratioP2;P2;SDS_P1;SDS_P2;PMS_P1;PMS_P2;Temp;Humidity;BMP_temperature;BMP_pressure;BME280_temperature;BME280_humidity;BME280_pressure;Samples;Min_cycle;Max_cycle;Signal;HPM_P1;HPM_P2
2022/08/28 00:01:34;;;;;;;40.53;11.43;;;;;;;;;;4974090;28;20074;-72
2022/08/28 00:04:00;;;;;;;45.72;11.05;;;;;;;;;;4944093;28;20051;-72
2022/08/28 00:09:42;;;;;;;38.63;11.25;;;;;;;;;;4944052;28;20453;-72
2022/08/28 00:12:11;;;;;;;24.05;9.93;;;;;;;;;;4939486;29;20126;-76
2022/08/28 00:14:37;;;;;;;23.65;10.63;;;;;;;;;;4939627;28;20482;-73
2022/08/28 00:17:04;;;;;;;56.53;12.65;;;;;;;;;;4935595;29;20509;-73
2022/08/28 00:19:30;;;;;;;32.15;11.15;;;;;;;;;;4954974;28;20543;-73
2022/08/28 00:22:03;;;;;;;35.65;10.65;;;;;;;;;;4940686;28;20378;-73
2022/08/28 00:24:30;;;;;;;49.50;14.10;;;;;;;;;;4945627;28;20044;-73
2022/08/28 00:29:44;;;;;;;58.22;12.85;;;;;;;;;;4938917;29;20460;-75
2022/08/28 00:32:11;;;;;;;33.97;11.27;;;;;;;;;;4950908;29;20095;-76
2022/08/28 00:34:38;;;;;;;35.10;12.05;;;;;;;;;;4937935;29;20551;-77
2022/08/28 00:37:04;;;;;;;53.22;13.57;;;;;;;;;;4948633;28;20126;-77
2022/08/28 00:39:31;;;;;;;57.33;12.80;;;;;;;;;;4938756;28;20043;-77
2022/08/28 00:41:57;;;;;;;32.25;11.35;;;;;;;;;;4938667;28;20111;-72
2022/08/28 00:44:25;;;;;;;45.05;12.57;;;;;;;;;;4953739;28;20035;-77
2022/08/28 00:46:53;;;;;;;31.88;11.38;;;;;;;;;;4935285;29;20079;-74
2022/08/28 00:49:21;;;;;;;51.92;12.95;;;;;;;;;;4938870;28;20485;-76
2022/08/28 00:52:07;;;;;;;57.40;14.13;;;;;;;;;;4938376;29;20066;-75
2022/08/28 00:54:40;;;;;;;44.38;13.45;;;;;;;;;;4938179;28;20179;-74
2022/08/28 00:57:19;;;;;;;46.10;13.98;;;;;;;;;;4946260;28;20098;-79
2022/08/28 00:59:46;;;;;;;55.88;14.02;;;;;;;;;;4954376;28;20039;-76
2022/08/28 01:02:15;;;;;;;59.28;14.98;;;;;;;;;;4953677;29;20058;-78
2022/08/28 01:04:42;;;;;;;73.25;15.35;;;;;;;;;;4948504;28;20039;-78
2022/08/28 01:07:13;;;;;;;48.45;14.27;;;;;;;;;;4948756;28;20047;-79
2022/08/28 01:09:47;;;;;;;48.30;13.68;;;;;;;;;;4944185;28;20523;-74
2022/08/28 01:12:16;;;;;;;41.05;12.98;;;;;;;;;;4943886;29;20130;-76
2022/08/28 01:14:44;;;;;;;50.72;15.25;;;;;;;;;;4951026;28;20050;-74
2022/08/28 01:17:13;;;;;;;65.78;15.52;;;;;;;;;;4936984;28;20065;-76
2022/08/28 01:19:42;;;;;;;25.73;11.40;;;;;;;;;;4936272;29;20135;-75
2022/08/28 01:22:09;;;;;;;42.83;12.45;;;;;;;;;;4937667;29;20054;-73
2022/08/28 01:24:36;;;;;;;27.45;11.55;;;;;;;;;;4938239;28;20122;-75
2022/08/28 01:27:03;;;;;;;40.25;13.18;;;;;;;;;;4937389;28;20126;-77
2022/08/28 01:29:30;;;;;;;47.60;13.05;;;;;;;;;;4937664;29;20035;-76
2022/08/28 01:31:58;;;;;;;32.42;10.95;;;;;;;;;;4937677;28;20131;-78
2022/08/28 01:34:24;;;;;;;45.47;12.90;;;;;;;;;;4937578;29;20460;-78
2022/08/28 01:36:51;;;;;;;35.00;12.63;;;;;;;;;;4940599;29;20043;-78
2022/08/28 01:39:19;;;;;;;37.35;13.80;;;;;;;;;;4937325;28;20043;-72
2022/08/28 01:41:47;;;;;;;48.38;13.70;;;;;;;;;;4936950;28;20145;-72
2022/08/28 01:45:02;;;;;;;23.10;11.50;;;;;;;;;;4927271;28;20046;-71
2022/08/28 01:47:28;;;;;;;40.30;13.38;;;;;;;;;;4950882;28;20118;-75
2022/08/28 01:49:55;;;;;;;44.17;12.98;;;;;;;;;;4953441;28;20077;-73
2022/08/28 01:52:22;;;;;;;30.90;12.38;;;;;;;;;;4937700;29;20044;-71
2022/08/28 01:54:51;;;;;;;44.72;13.25;;;;;;;;;;4937311;28;20058;-73
2022/08/28 01:57:18;;;;;;;43.42;12.35;;;;;;;;;;4936740;29;20044;-80
2022/08/28 01:59:47;;;;;;;27.65;12.50;;;;;;;;;;4943268;29;20035;-77
2022/08/28 02:02:14;;;;;;;53.85;14.82;;;;;;;;;;4935694;29;20078;-77
2022/08/28 02:04:41;;;;;;;36.35;12.65;;;;;;;;;;4953172;29;20051;-76
2022/08/28 02:07:15;;;;;;;34.72;11.93;;;;;;;;;;4935655;29;20127;-76
2022/08/28 02:09:42;;;;;;;65.40;15.27;;;;;;;;;;4947709;28;20071;-77
2022/08/28 02:12:08;;;;;;;29.70;11.20;;;;;;;;;;4929601;29;20065;-77
2022/08/28 02:14:37;;;;;;;42.90;12.65;;;;;;;;;;4920390;29;20046;-77
2022/08/28 02:17:03;;;;;;;37.45;12.10;;;;;;;;;;4917183;28;20139;-77
2022/08/28 02:19:31;;;;;;;35.67;11.73;;;;;;;;;;4919882;29;20059;-77
2022/08/28 02:21:57;;;;;;;39.80;12.60;;;;;;;;;;4937366;28;20129;-77
2022/08/28 02:24:24;;;;;;;61.90;14.90;;;;;;;;;;4936253;29;20079;-77
2022/08/28 02:26:50;;;;;;;43.03;12.30;;;;;;;;;;4937720;28;20119;-78
2022/08/28 02:29:17;;;;;;;54.63;13.57;;;;;;;;;;4950794;28;20423;-75
2022/08/28 02:31:44;;;;;;;63.33;14.90;;;;;;;;;;4934617;29;20039;-78
2022/08/28 02:34:11;;;;;;;18.73;10.98;;;;;;;;;;4937520;28;20126;-79
2022/08/28 02:36:40;;;;;;;36.88;12.05;;;;;;;;;;4939696;28;20040;-79
2022/08/28 02:39:07;;;;;;;47.83;13.18;;;;;;;;;;4938456;28;20426;-80
2022/08/28 02:41:34;;;;;;;28.15;11.50;;;;;;;;;;4940076;28;20477;-79
2022/08/28 02:44:01;;;;;;;27.42;11.77;;;;;;;;;;4953009;28;20523;-69
2022/08/28 02:46:27;;;;;;;92.97;14.40;;;;;;;;;;4940810;28;20483;-70
2022/08/28 02:48:55;;;;;;;35.75;11.73;;;;;;;;;;4952309;28;20074;-70
2022/08/28 02:51:21;;;;;;;37.95;13.10;;;;;;;;;;4949458;29;20054;-72
2022/08/28 02:53:49;;;;;;;60.58;14.88;;;;;;;;;;4939590;28;20590;-74
2022/08/28 02:56:16;;;;;;;35.63;11.90;;;;;;;;;;4954243;28;20043;-74
2022/08/28 02:58:42;;;;;;;33.20;12.40;;;;;;;;;;4951841;29;20480;-75
2022/08/28 03:01:10;;;;;;;61.80;14.88;;;;;;;;;;4913378;29;20461;-75
2022/08/28 03:03:38;;;;;;;26.88;11.55;;;;;;;;;;4940831;28;20040;-75
2022/08/28 03:06:07;;;;;;;31.20;11.70;;;;;;;;;;4926034;29;20047;-77
2022/08/28 03:08:34;;;;;;;60.50;13.82;;;;;;;;;;4954370;29;20130;-76
2022/08/28 03:11:00;;;;;;;26.35;10.95;;;;;;;;;;4936507;28;20051;-77
2022/08/28 03:13:28;;;;;;;27.73;11.35;;;;;;;;;;4938558;29;20147;-79
2022/08/28 03:15:56;;;;;;;46.80;12.73;;;;;;;;;;4943998;28;20517;-79
2022/08/28 03:18:23;;;;;;;59.85;14.52;;;;;;;;;;4940333;29;20538;-77
2022/08/28 03:20:51;;;;;;;55.38;13.25;;;;;;;;;;4940238;28;20070;-76
2022/08/28 03:23:27;;;;;;;75.45;15.48;;;;;;;;;;4938198;28;20108;-72
2022/08/28 03:25:53;;;;;;;47.78;12.98;;;;;;;;;;4954336;29;20043;-74
2022/08/28 03:28:20;;;;;;;35.92;12.32;;;;;;;;;;4939982;28;20167;-73
2022/08/28 03:30:47;;;;;;;56.50;13.70;;;;;;;;;;4940230;28;20047;-72
2022/08/28 03:33:13;;;;;;;41.92;13.77;;;;;;;;;;4941822;28;20071;-72
2022/08/28 03:35:40;;;;;;;38.33;12.23;;;;;;;;;;4944267;28;20068;-72
2022/08/28 03:38:06;;;;;;;36.42;12.05;;;;;;;;;;4954615;28;20070;-75
2022/08/28 03:40:37;;;;;;;37.92;12.98;;;;;;;;;;4939326;29;20052;-75
2022/08/28 03:43:04;;;;;;;50.45;14.80;;;;;;;;;;4939783;28;20044;-76
2022/08/28 03:45:32;;;;;;;35.30;12.13;;;;;;;;;;4940115;29;20043;-74
2022/08/28 03:47:59;;;;;;;26.77;12.55;;;;;;;;;;4943748;29;20039;-74
2022/08/28 03:50:25;;;;;;;31.95;12.95;;;;;;;;;;4954682;29;20054;-73
2022/08/28 03:52:54;;;;;;;66.18;15.77;;;;;;;;;;4935947;29;20099;-75
2022/08/28 03:55:21;;;;;;;45.05;13.07;;;;;;;;;;4946483;28;20058;-73
2022/08/28 03:57:50;;;;;;;50.75;14.70;;;;;;;;;;4926461;29;20531;-73
2022/08/28 04:00:17;;;;;;;40.22;13.10;;;;;;;;;;4939354;28;20047;-73
2022/08/28 04:02:45;;;;;;;53.63;14.90;;;;;;;;;;4939929;28;20031;-74
2022/08/28 04:05:11;;;;;;;47.20;14.13;;;;;;;;;;4920278;28;20126;-74
2022/08/28 04:07:38;;;;;;;32.53;11.80;;;;;;;;;;4938116;29;20047;-73
2022/08/28 04:10:05;;;;;;;24.65;11.13;;;;;;;;;;4939612;29;20103;-73
2022/08/28 04:12:32;;;;;;;52.55;14.68;;;;;;;;;;4929793;29;20130;-73
2022/08/28 04:15:00;;;;;;;53.83;13.07;;;;;;;;;;4950484;29;20039;-73
2022/08/28 04:17:27;;;;;;;49.75;13.15;;;;;;;;;;4955464;28;20047;-77
2022/08/28 04:19:53;;;;;;;35.10;11.52;;;;;;;;;;4954829;29;20050;-72
2022/08/28 04:22:20;;;;;;;39.08;12.55;;;;;;;;;;4946174;28;20252;-72
2022/08/28 04:24:49;;;;;;;35.40;11.10;;;;;;;;;;4939242;29;20039;-74
2022/08/28 04:27:15;;;;;;;30.05;10.95;;;;;;;;;;4938940;28;20047;-74
2022/08/28 04:29:42;;;;;;;41.10;13.05;;;;;;;;;;4938970;28;20468;-75
2022/08/28 04:32:08;;;;;;;50.50;13.70;;;;;;;;;;4938400;29;20044;-74
2022/08/28 04:34:36;;;;;;;72.45;14.05;;;;;;;;;;4920791;29;20075;-77
2022/08/28 04:37:04;;;;;;;68.53;14.57;;;;;;;;;;4941457;29;20127;-71
2022/08/28 04:39:31;;;;;;;34.13;10.52;;;;;;;;;;4939364;28;20067;-73
2022/08/28 04:41:58;;;;;;;60.92;14.13;;;;;;;;;;4937904;28;20036;-72
2022/08/28 04:44:24;;;;;;;64.18;15.00;;;;;;;;;;4936869;28;20491;-74
2022/08/28 04:46:53;;;;;;;260.85;25.90;;;;;;;;;;4935737;29;20067;-74
2022/08/28 04:49:21;;;;;;;155.27;19.63;;;;;;;;;;4953373;28;20054;-79
2022/08/28 04:51:51;;;;;;;39.45;10.52;;;;;;;;;;4942991;29;20071;-79
2022/08/28 04:54:17;;;;;;;38.85;10.40;;;;;;;;;;4944758;28;20089;-75
2022/08/28 04:56:45;;;;;;;130.48;17.50;;;;;;;;;;4938221;28;20466;-79
2022/08/28 04:59:11;;;;;;;48.30;11.48;;;;;;;;;;4934381;29;20056;-80
2022/08/28 05:01:39;;;;;;;35.55;9.60;;;;;;;;;;4935807;29;20130;-80
2022/08/28 05:04:05;;;;;;;36.55;10.25;;;;;;;;;;4949028;28;20051;-81
2022/08/28 05:06:32;;;;;;;47.25;9.85;;;;;;;;;;4960469;28;20477;-78
2022/08/28 05:09:00;;;;;;;29.88;9.25;;;;;;;;;;4949035;29;20461;-74
2022/08/28 05:11:28;;;;;;;53.85;11.43;;;;;;;;;;4937476;28;20499;-71
2022/08/28 05:14:04;;;;;;;38.40;10.20;;;;;;;;;;4938389;29;20040;-71
2022/08/28 05:16:31;;;;;;;35.05;9.25;;;;;;;;;;4952898;28;20078;-73
2022/08/28 05:18:59;;;;;;;52.92;11.65;;;;;;;;;;4942955;28;20035;-75
2022/08/28 05:21:27;;;;;;;42.15;10.65;;;;;;;;;;4937950;28;20044;-77
2022/08/28 05:23:55;;;;;;;45.65;10.90;;;;;;;;;;4938675;28;20044;-79
2022/08/28 05:26:22;;;;;;;39.65;10.90;;;;;;;;;;4920341;29;20504;-82
2022/08/28 05:28:53;;;;;;;31.92;8.25;;;;;;;;;;4939302;29;20821;-78
2022/08/28 05:31:20;;;;;;;50.90;9.93;;;;;;;;;;4923513;29;20134;-81
2022/08/28 05:33:47;;;;;;;55.92;11.55;;;;;;;;;;4939874;28;20488;-72
2022/08/28 05:36:15;;;;;;;43.35;9.65;;;;;;;;;;4941215;29;20038;-64
2022/08/28 05:38:43;;;;;;;47.95;10.35;;;;;;;;;;4947773;29;20126;-62
2022/08/28 05:41:10;;;;;;;54.83;11.30;;;;;;;;;;4952029;28;20122;-65
2022/08/28 05:43:38;;;;;;;36.72;9.30;;;;;;;;;;4953129;29;20047;-66
2022/08/28 05:46:08;;;;;;;36.55;9.20;;;;;;;;;;4931275;29;20389;-66
2022/08/28 05:48:38;;;;;;;41.30;9.48;;;;;;;;;;4943642;28;20822;-65
2022/08/28 05:51:05;;;;;;;19.25;7.10;;;;;;;;;;4937588;28;20043;-63
2022/08/28 05:53:37;;;;;;;40.58;9.50;;;;;;;;;;4943219;29;20702;-65
2022/08/28 05:56:04;;;;;;;34.58;8.40;;;;;;;;;;4917025;28;20380;-65
2022/08/28 05:58:32;;;;;;;27.52;7.25;;;;;;;;;;4936898;29;20103;-67
2022/08/28 06:01:03;;;;;;;40.90;8.52;;;;;;;;;;4922723;29;20067;-65
2022/08/28 06:03:29;;;;;;;25.92;7.57;;;;;;;;;;4937274;28;20042;-64
2022/08/28 06:05:56;;;;;;;45.80;8.50;;;;;;;;;;4937284;28;20051;-62
2022/08/28 06:08:22;;;;;;;56.03;10.40;;;;;;;;;;4935590;28;20119;-64
2022/08/28 06:10:49;;;;;;;28.40;6.82;;;;;;;;;;4934728;29;20050;-64
2022/08/28 06:13:16;;;;;;;28.35;6.75;;;;;;;;;;4940835;28;20127;-65
2022/08/28 06:15:45;;;;;;;36.42;8.88;;;;;;;;;;4888104;28;293038;-66
2022/08/28 06:18:12;;;;;;;41.95;8.85;;;;;;;;;;4936377;29;20085;-65
2022/08/28 06:20:42;;;;;;;27.17;7.00;;;;;;;;;;4936681;28;20031;-68
2022/08/28 06:23:09;;;;;;;41.35;8.35;;;;;;;;;;4933807;29;20035;-65
2022/08/28 06:25:38;;;;;;;27.60;7.15;;;;;;;;;;4952384;29;20553;-71
2022/08/28 06:28:06;;;;;;;31.00;6.95;;;;;;;;;;4934249;29;20492;-72
2022/08/28 06:30:35;;;;;;;39.92;7.95;;;;;;;;;;4943119;28;20040;-76
2022/08/28 06:33:06;;;;;;;29.92;7.00;;;;;;;;;;4943194;29;20047;-65
2022/08/28 06:35:33;;;;;;;37.80;7.30;;;;;;;;;;4934835;29;20074;-62
2022/08/28 06:38:00;;;;;;;36.45;7.88;;;;;;;;;;4936175;29;20047;-61
2022/08/28 06:40:26;;;;;;;35.40;7.43;;;;;;;;;;4936859;29;20040;-59
2022/08/28 06:42:53;;;;;;;40.50;8.10;;;;;;;;;;4936283;29;20048;-61
2022/08/28 06:45:19;;;;;;;43.42;9.00;;;;;;;;;;4936598;29;20119;-61
2022/08/28 06:47:46;;;;;;;27.42;6.90;;;;;;;;;;4937252;29;20047;-62
2022/08/28 06:50:16;;;;;;;29.60;7.05;;;;;;;;;;4946806;28;20134;-61
2022/08/28 06:52:43;;;;;;;49.72;7.95;;;;;;;;;;4920770;29;20039;-61
2022/08/28 06:55:09;;;;;;;75.57;10.77;;;;;;;;;;4919839;29;20393;-62
2022/08/28 06:57:37;;;;;;;30.70;6.93;;;;;;;;;;4936979;28;20392;-60
2022/08/28 07:00:04;;;;;;;43.00;8.30;;;;;;;;;;4936734;28;20071;-60
2022/08/28 07:02:31;;;;;;;28.77;6.78;;;;;;;;;;4936890;28;20463;-60
2022/08/28 07:04:58;;;;;;;48.00;18.70;;;;;;;;;;4933124;29;20056;-59
2022/08/28 07:07:24;;;;;;;101.35;14.65;;;;;;;;;;4935928;29;20068;-62
2022/08/28 07:09:58;;;;;;;46.97;8.40;;;;;;;;;;4947732;28;20043;-59
2022/08/28 07:12:24;;;;;;;43.85;8.00;;;;;;;;;;4952737;28;20064;-59
2022/08/28 07:14:51;;;;;;;27.20;6.72;;;;;;;;;;4946803;29;20135;-59
2022/08/28 07:17:17;;;;;;;144.55;13.85;;;;;;;;;;4951596;29;20059;-59
2022/08/28 07:19:44;;;;;;;41.70;7.30;;;;;;;;;;4933360;29;20666;-60
2022/08/28 07:22:10;;;;;;;39.65;7.40;;;;;;;;;;4935228;29;20060;-60
2022/08/28 07:24:37;;;;;;;32.33;6.93;;;;;;;;;;4935392;28;20115;-60
2022/08/28 07:27:04;;;;;;;43.08;8.23;;;;;;;;;;4939615;29;20495;-59
2022/08/28 07:29:31;;;;;;;55.20;10.52;;;;;;;;;;4950664;28;20110;-60
2022/08/28 07:31:58;;;;;;;35.08;7.00;;;;;;;;;;4938264;29;20043;-59
2022/08/28 07:34:24;;;;;;;34.50;8.10;;;;;;;;;;4953666;28;20125;-60
2022/08/28 07:36:53;;;;;;;34.60;7.30;;;;;;;;;;4941935;28;20063;-59
2022/08/28 07:39:19;;;;;;;22.98;6.88;;;;;;;;;;4946659;28;20043;-60
2022/08/28 07:41:46;;;;;;;35.35;7.53;;;;;;;;;;4950208;29;20479;-59
2022/08/28 07:47:02;;;;;;;34.80;7.88;;;;;;;;;;4939787;29;20134;-60
2022/08/28 07:49:30;;;;;;;46.15;8.82;;;;;;;;;;4953710;29;20046;-60
2022/08/28 07:51:56;;;;;;;27.02;6.55;;;;;;;;;;4943288;29;20043;-61
2022/08/28 07:54:23;;;;;;;46.45;8.15;;;;;;;;;;4922692;29;20039;-60
2022/08/28 07:56:49;;;;;;;58.53;9.77;;;;;;;;;;4939312;28;20043;-61
2022/08/28 07:59:16;;;;;;;38.60;7.45;;;;;;;;;;4961552;28;20046;-64
2022/08/28 08:01:46;;;;;;;60.38;9.25;;;;;;;;;;4941242;28;20044;-61
2022/08/28 08:04:14;;;;;;;40.22;7.72;;;;;;;;;;4942549;28;20504;-65
2022/08/28 08:06:42;;;;;;;47.55;8.20;;;;;;;;;;4940491;28;20087;-66
2022/08/28 08:09:09;;;;;;;43.80;8.60;;;;;;;;;;4942566;28;20043;-65
2022/08/28 08:11:36;;;;;;;107.60;12.63;;;;;;;;;;4938719;28;20043;-65
2022/08/28 08:14:04;;;;;;;34.05;7.25;;;;;;;;;;4934789;29;20465;-66
2022/08/28 08:16:33;;;;;;;42.55;7.63;;;;;;;;;;4938361;29;20043;-66
2022/08/28 08:19:00;;;;;;;46.17;8.40;;;;;;;;;;4950700;29;20039;-64
2022/08/28 08:21:27;;;;;;;26.70;6.72;;;;;;;;;;4950110;29;20423;-66
2022/08/28 08:23:56;;;;;;;36.05;9.52;;;;;;;;;;4950237;29;20046;-70
2022/08/28 08:26:24;;;;;;;32.58;6.95;;;;;;;;;;4952019;29;20440;-68
2022/08/28 08:28:51;;;;;;;39.58;6.95;;;;;;;;;;4953021;29;20048;-66
2022/08/28 08:31:28;;;;;;;30.85;6.95;;;;;;;;;;4950032;28;20465;-67
2022/08/28 08:33:56;;;;;;;25.45;6.25;;;;;;;;;;4949076;28;20511;-67
2022/08/28 08:36:24;;;;;;;77.88;9.55;;;;;;;;;;4943709;29;20067;-70
2022/08/28 08:38:51;;;;;;;35.83;7.70;;;;;;;;;;4929043;29;20054;-71
2022/08/28 08:41:33;;;;;;;28.05;6.18;;;;;;;;;;4953256;28;20107;-70
2022/08/28 08:44:00;;;;;;;48.80;8.48;;;;;;;;;;4953072;28;20115;-70
2022/08/28 08:46:31;;;;;;;28.30;5.43;;;;;;;;;;4936274;29;20047;-70
2022/08/28 08:49:01;;;;;;;24.58;6.15;;;;;;;;;;4953470;28;20122;-70
2022/08/28 08:51:38;;;;;;;35.70;7.32;;;;;;;;;;4953539;28;20046;-71
2022/08/28 08:54:07;;;;;;;23.95;6.40;;;;;;;;;;4955741;28;20122;-70
2022/08/28 08:56:34;;;;;;;29.30;6.93;;;;;;;;;;4955329;28;20070;-70
2022/08/28 08:59:01;;;;;;;21.05;5.28;;;;;;;;;;4950103;29;20047;-70
2022/08/28 09:01:40;;;;;;;33.08;6.38;;;;;;;;;;4936481;29;20039;-71
2022/08/28 09:04:25;;;;;;;29.90;7.00;;;;;;;;;;4955790;28;20063;-71
2022/08/28 09:07:09;;;;;;;31.75;6.05;;;;;;;;;;4956835;28;20043;-70
2022/08/28 09:09:39;;;;;;;50.55;7.28;;;;;;;;;;4952184;28;20043;-70
2022/08/28 09:12:07;;;;;;;25.55;6.07;;;;;;;;;;4952159;29;20138;-71
2022/08/28 09:14:37;;;;;;;44.83;7.57;;;;;;;;;;4953355;29;20141;-73
2022/08/28 09:17:05;;;;;;;22.88;5.22;;;;;;;;;;4953778;29;20058;-66
2022/08/28 09:19:31;;;;;;;62.00;7.85;;;;;;;;;;4953340;29;20415;-68
2022/08/28 09:21:58;;;;;;;55.95;8.48;;;;;;;;;;4954331;28;20118;-70
2022/08/28 09:24:27;;;;;;;36.38;6.95;;;;;;;;;;4953464;28;20126;-67
2022/08/28 09:26:58;;;;;;;33.25;6.65;;;;;;;;;;4952084;29;20040;-66
2022/08/28 09:29:30;;;;;;;35.70;7.65;;;;;;;;;;4953015;28;20094;-67
2022/08/28 09:32:13;;;;;;;25.98;6.30;;;;;;;;;;4953222;29;20116;-66
2022/08/28 09:34:40;;;;;;;;;;;;;;;;;;4953065;28;20407;-65
2022/08/28 09:37:07;;;;;;;20.50;6.10;;;;;;;;;;4951573;28;20029;-67
2022/08/28 09:39:37;;;;;;;50.28;10.73;;;;;;;;;;4952393;28;20039;-67
2022/08/28 09:45:02;;;;;;;127.97;12.05;;;;;;;;;;4927279;29;20126;-66
2022/08/28 09:47:40;;;;;;;33.72;6.40;;;;;;;;;;4921238;29;20116;-64
2022/08/28 09:50:24;;;;;;;50.85;8.98;;;;;;;;;;4911636;29;20059;-64
2022/08/28 09:52:54;;;;;;;45.72;8.05;;;;;;;;;;4928970;29;20079;-64
2022/08/28 09:55:32;;;;;;;33.70;7.05;;;;;;;;;;4926250;29;20055;-64
2022/08/28 09:57:59;;;;;;;83.18;9.38;;;;;;;;;;4926925;29;20059;-64
2022/08/28 10:00:29;;;;;;;61.50;8.35;;;;;;;;;;4910164;29;20147;-63
2022/08/28 10:03:14;;;;;;;40.03;7.22;;;;;;;;;;4926998;29;20044;-65
2022/08/28 10:05:50;;;;;;;32.55;6.78;;;;;;;;;;4926984;29;20066;-64
2022/08/28 10:08:30;;;;;;;62.90;8.68;;;;;;;;;;4929111;29;20143;-65
2022/08/28 10:11:01;;;;;;;32.05;6.88;;;;;;;;;;4930539;29;20135;-66
2022/08/28 10:13:30;;;;;;;43.28;6.97;;;;;;;;;;4926252;29;20496;-63
2022/08/28 10:15:59;;;;;;;317.33;25.50;;;;;;;;;;4926873;29;20087;-65
2022/08/28 10:18:34;;;;;;;240.00;19.65;;;;;;;;;;4926642;29;20210;-66
2022/08/28 10:21:25;;;;;;;104.47;10.10;;;;;;;;;;4940891;28;20139;-66
2022/08/28 10:23:51;;;;;;;70.03;8.57;;;;;;;;;;4936588;28;20067;-66
2022/08/28 10:26:24;;;;;;;23.45;4.97;;;;;;;;;;4935072;29;20054;-66
2022/08/28 10:29:01;;;;;;;36.25;6.18;;;;;;;;;;4935151;29;20052;-66
2022/08/28 10:31:46;;;;;;;99.10;11.13;;;;;;;;;;4936094;29;20086;-65
2022/08/28 10:34:12;;;;;;;31.02;6.35;;;;;;;;;;4939511;28;20420;-65
2022/08/28 10:36:40;;;;;;;41.08;6.22;;;;;;;;;;4941116;28;20044;-65
2022/08/28 10:39:09;;;;;;;35.63;6.95;;;;;;;;;;4936730;29;20036;-66
2022/08/28 10:41:47;;;;;;;54.22;7.38;;;;;;;;;;4952281;29;20047;-66
2022/08/28 10:44:18;;;;;;;73.32;9.07;;;;;;;;;;4952031;28;20582;-65
2022/08/28 10:46:47;;;;;;;62.35;7.82;;;;;;;;;;4935360;28;20044;-65
2022/08/28 10:49:27;;;;;;;69.50;8.35;;;;;;;;;;4936816;28;20067;-65
2022/08/28 10:51:57;;;;;;;33.55;5.70;;;;;;;;;;4936837;28;20131;-65
2022/08/28 10:54:27;;;;;;;148.93;12.35;;;;;;;;;;4938952;28;20463;-65
2022/08/28 10:57:08;;;;;;;54.83;7.78;;;;;;;;;;4962436;28;20119;-65
2022/08/28 10:59:36;;;;;;;37.40;7.32;;;;;;;;;;4936713;28;20044;-65
2022/08/28 11:02:11;;;;;;;39.28;6.75;;;;;;;;;;4936865;29;20052;-64
2022/08/28 11:04:37;;;;;;;90.60;10.45;;;;;;;;;;4936358;29;20063;-64
2022/08/28 11:07:06;;;;;;;41.53;8.65;;;;;;;;;;4940048;29;20500;-64
2022/08/28 11:09:41;;;;;;;34.22;11.95;;;;;;;;;;4940431;28;20040;-73
2022/08/28 11:12:18;;;;;;;121.75;13.30;;;;;;;;;;4941298;28;20075;-69
2022/08/28 11:14:46;;;;;;;31.00;6.13;;;;;;;;;;4953884;28;20360;-66
2022/08/28 11:17:20;;;;;;;54.42;8.07;;;;;;;;;;4923459;28;66288;-64
2022/08/28 11:19:47;;;;;;;;;;;;;;;;;;4938578;29;20131;-66
2022/08/28 11:22:22;;;;;;;22.90;5.32;;;;;;;;;;4942062;28;19929;-66
2022/08/28 11:25:12;;;;;;;32.35;6.10;;;;;;;;;;4940246;29;20485;-66
2022/08/28 11:27:59;;;;;;;26.20;6.57;;;;;;;;;;4903792;29;20055;-66
2022/08/28 11:30:34;;;;;;;32.35;6.82;;;;;;;;;;4901912;29;20143;-66
2022/08/28 11:33:02;;;;;;;35.05;7.13;;;;;;;;;;4911366;29;20609;-65
2022/08/28 11:35:29;;;;;;;55.35;8.52;;;;;;;;;;4915040;29;20243;-67
2022/08/28 11:37:56;;;;;;;149.98;16.30;;;;;;;;;;4910586;29;20123;-67
2022/08/28 11:40:29;;;;;;;43.35;6.90;;;;;;;;;;4916856;29;20073;-66
2022/08/28 11:42:55;;;;;;;;;;;;;;;;;;4914204;29;20196;-64
2022/08/28 11:45:40;;;;;;;69.93;9.77;;;;;;;;;;4909887;29;19939;-66
2022/08/28 11:48:14;;;;;;;71.18;9.48;;;;;;;;;;4914887;29;20055;-66
2022/08/28 11:50:57;;;;;;;79.22;9.93;;;;;;;;;;4913011;29;20410;-67
2022/08/28 11:53:31;;;;;;;96.85;12.13;;;;;;;;;;4896164;29;20056;-67
2022/08/28 11:55:58;;;;;;;162.23;13.80;;;;;;;;;;4909745;29;20068;-67
2022/08/28 11:58:36;;;;;;;62.75;8.45;;;;;;;;;;4908037;29;20417;-67
2022/08/28 12:01:05;;;;;;;120.32;13.60;;;;;;;;;;4907007;29;20044;-67
2022/08/28 12:03:41;;;;;;;43.83;7.40;;;;;;;;;;4908140;29;20154;-67
2022/08/28 12:06:09;;;;;;;83.28;9.45;;;;;;;;;;4937044;28;20130;-67
2022/08/28 12:08:50;;;;;;;51.65;7.28;;;;;;;;;;4936429;28;20467;-67
2022/08/28 12:11:35;;;;;;;56.13;9.00;;;;;;;;;;4936851;28;20056;-67
2022/08/28 12:14:01;;;;;;;55.85;8.10;;;;;;;;;;4932597;29;20054;-67
2022/08/28 12:16:28;;;;;;;60.35;8.00;;;;;;;;;;4937446;29;20386;-67
2022/08/28 12:18:57;;;;;;;51.47;8.23;;;;;;;;;;4938679;29;20073;-67
2022/08/28 12:21:24;;;;;;;33.10;6.90;;;;;;;;;;4938884;28;20104;-67
2022/08/28 12:23:55;;;;;;;101.57;10.55;;;;;;;;;;4939031;29;20035;-67
2022/08/28 12:26:37;;;;;;;55.72;6.93;;;;;;;;;;4937457;28;20059;-65
2022/08/28 12:29:04;;;;;;;46.05;8.05;;;;;;;;;;4939449;29;20051;-67
2022/08/28 12:34:21;;;;;;;37.17;6.60;;;;;;;;;;4938639;28;20497;-67
2022/08/28 12:36:57;;;;;;;35.28;6.72;;;;;;;;;;4943390;28;20404;-67
2022/08/28 12:39:25;;;;;;;337.73;24.10;;;;;;;;;;4923894;29;20134;-66
2022/08/28 12:41:51;;;;;;;62.78;9.05;;;;;;;;;;4952280;28;20141;-66
2022/08/28 12:44:22;;;;;;;35.63;6.78;;;;;;;;;;4936295;28;20130;-67
2022/08/28 12:46:49;;;;;;;42.47;6.95;;;;;;;;;;4937893;28;20130;-66
2022/08/28 12:49:44;;;;;;;34.35;6.32;;;;;;;;;;4943070;28;20058;-66
2022/08/28 12:52:17;;;;;;;44.75;7.40;;;;;;;;;;4932501;29;20138;-66
2022/08/28 12:54:45;;;;;;;39.33;6.47;;;;;;;;;;4945135;29;20048;-67
2022/08/28 12:57:14;;;;;;;60.22;7.53;;;;;;;;;;4938315;28;20050;-67
2022/08/28 12:59:42;;;;;;;49.25;7.60;;;;;;;;;;4938516;28;20071;-67
2022/08/28 13:02:11;;;;;;;49.72;7.70;;;;;;;;;;4934942;29;20411;-67
2022/08/28 13:04:50;;;;;;;39.63;7.53;;;;;;;;;;4953702;29;20134;-66
2022/08/28 13:07:22;;;;;;;29.50;6.43;;;;;;;;;;4940530;29;20048;-66
2022/08/28 13:09:52;;;;;;;38.35;6.57;;;;;;;;;;4938317;28;20078;-67
2022/08/28 13:12:21;;;;;;;396.42;36.95;;;;;;;;;;4937876;28;20468;-66
2022/08/28 13:15:00;;;;;;;39.92;6.68;;;;;;;;;;4938239;28;20063;-66
2022/08/28 13:17:50;;;;;;;47.95;8.13;;;;;;;;;;4957317;28;20055;-66
2022/08/28 13:20:24;;;;;;;57.25;8.60;;;;;;;;;;4937964;28;20058;-67
2022/08/28 13:22:51;;;;;;;38.28;7.18;;;;;;;;;;4936286;29;20043;-67
2022/08/28 13:25:26;;;;;;;37.08;6.50;;;;;;;;;;4938750;28;20118;-67
2022/08/28 13:28:00;;;;;;;82.28;10.70;;;;;;;;;;4936914;29;20089;-66
2022/08/28 13:30:28;;;;;;;41.13;7.65;;;;;;;;;;4937813;28;20071;-67
2022/08/28 13:32:56;;;;;;;36.08;6.80;;;;;;;;;;4940888;29;20186;-67
2022/08/28 13:35:23;;;;;;;47.55;8.27;;;;;;;;;;4940234;28;20043;-67
2022/08/28 13:37:51;;;;;;;36.78;6.63;;;;;;;;;;4936463;29;20054;-66
2022/08/28 13:40:23;;;;;;;35.72;7.07;;;;;;;;;;4937848;29;20099;-66
2022/08/28 13:43:10;;;;;;;35.63;7.43;;;;;;;;;;4939903;28;20052;-66
2022/08/28 13:45:38;;;;;;;31.73;6.45;;;;;;;;;;4952609;28;20047;-67
2022/08/28 13:48:14;;;;;;;95.18;11.43;;;;;;;;;;4937944;28;20077;-67
2022/08/28 13:50:42;;;;;;;30.95;7.40;;;;;;;;;;4937685;28;20450;-67
2022/08/28 13:53:12;;;;;;;49.97;8.15;;;;;;;;;;4934028;28;20122;-67
2022/08/28 13:55:39;;;;;;;141.15;15.02;;;;;;;;;;4937289;29;20054;-66
2022/08/28 13:58:06;;;;;;;41.55;7.07;;;;;;;;;;4937242;29;20054;-67
2022/08/28 14:00:34;;;;;;;85.38;9.40;;;;;;;;;;4936960;29;20131;-66
2022/08/28 14:05:46;;;;;;;64.13;8.73;;;;;;;;;;4937225;28;20047;-67
2022/08/28 14:08:13;;;;;;;45.20;7.60;;;;;;;;;;4934370;28;20047;-67
2022/08/28 14:10:39;;;;;;;45.67;6.78;;;;;;;;;;4937031;29;20050;-67
2022/08/28 14:13:06;;;;;;;47.38;7.35;;;;;;;;;;4936942;28;20043;-66
2022/08/28 14:15:32;;;;;;;42.50;7.30;;;;;;;;;;4937010;28;20135;-67
2022/08/28 14:18:00;;;;;;;54.30;7.38;;;;;;;;;;4937659;29;20443;-66
2022/08/28 14:20:27;;;;;;;141.70;14.20;;;;;;;;;;4935076;29;20123;-67
2022/08/28 14:22:54;;;;;;;45.55;7.93;;;;;;;;;;4935261;29;20134;-67
2022/08/28 14:25:20;;;;;;;670.58;55.45;;;;;;;;;;4937321;28;20103;-67
2022/08/28 14:27:47;;;;;;;154.77;15.98;;;;;;;;;;4936746;29;20122;-67
2022/08/28 14:30:14;;;;;;;67.85;9.07;;;;;;;;;;4937103;29;20736;-66
2022/08/28 14:32:40;;;;;;;133.13;13.60;;;;;;;;;;4940513;29;20031;-67
2022/08/28 14:35:07;;;;;;;41.30;8.25;;;;;;;;;;4941736;29;20047;-67
2022/08/28 14:37:34;;;;;;;37.90;7.20;;;;;;;;;;4945142;29;20057;-67
2022/08/28 14:40:00;;;;;;;65.38;8.10;;;;;;;;;;4953557;28;20088;-67
2022/08/28 14:42:27;;;;;;;38.15;6.40;;;;;;;;;;4958495;28;20075;-67
2022/08/28 14:44:54;;;;;;;47.33;8.27;;;;;;;;;;4941000;28;20046;-67
2022/08/28 14:47:20;;;;;;;27.30;7.05;;;;;;;;;;4938664;28;20055;-67
2022/08/28 14:49:47;;;;;;;37.90;7.45;;;;;;;;;;4939661;29;20058;-67
2022/08/28 14:52:14;;;;;;;54.47;9.20;;;;;;;;;;4941018;28;20059;-66
2022/08/28 14:54:40;;;;;;;37.88;7.97;;;;;;;;;;4940852;29;20142;-66